sensor_id;sensor_type;location;lat;lon;timestamp;P1;durP1;ratioP1;P2;durP2;ratioP2
52033;SDS011;38045;52.988;6.536;2023-04-01T00:01:59;8.15;;;7.07;;
52033;SDS011;38045;52.988;6.536;2023-04-01T00:04:24;5.22;;;4.70;;
52033;SDS011;38045;52.988;6.536;2023-04-01T00:06:50;11.23;;;5.93;;
52033;SDS011;38045;52.988;6.536;2023-04-01T00:09:16;6.20;;;5.70;;
52033;SDS011;38045;52.988;6.536;2023-04-01T00:11:42;5.82;;;5.32;;
52033;SDS011;38045;52.988;6.536;2023-04-01T00:14:09;6.63;;;4.95;;
52033;SDS011;38045;52.988;6.536;2023-04-01T00:16:35;5.35;;;4.90;;
52033;SDS011;38045;52.988;6.536;2023-04-01T00:19:01;7.78;;;5.45;;
52033;SDS011;38045;52.988;6.536;2023-04-01T00:21:27;5.25;;;4.75;;
52033;SDS011;38045;52.988;6.536;2023-04-01T00:23:52;6.00;;;4.38;;
52033;SDS011;38045;52.988;6.536;2023-04-01T00:26:18;5.45;;;4.93;;
52033;SDS011;38045;52.988;6.536;2023-04-01T00:28:46;5.57;;;4.80;;
52033;SDS011;38045;52.988;6.536;2023-04-01T00:31:12;6.90;;;4.47;;
52033;SDS011;38045;52.988;6.536;2023-04-01T00:33:39;9.18;;;6.18;;
52033;SDS011;38045;52.988;6.536;2023-04-01T00:36:13;8.65;;;5.60;;
52033;SDS011;38045;52.988;6.536;2023-04-01T00:38:41;6.60;;;5.97;;
52033;SDS011;38045;52.988;6.536;2023-04-01T00:41:07;6.78;;;5.68;;
52033;SDS011;38045;52.988;6.536;2023-04-01T00:43:34;5.22;;;4.72;;
52033;SDS011;38045;52.988;6.536;2023-04-01T00:46:00;8.57;;;6.45;;
52033;SDS011;38045;52.988;6.536;2023-04-01T00:48:30;5.47;;;4.95;;
52033;SDS011;38045;52.988;6.536;2023-04-01T00:51:04;5.97;;;5.38;;
52033;SDS011;38045;52.988;6.536;2023-04-01T00:53:40;8.80;;;6.07;;
52033;SDS011;38045;52.988;6.536;2023-04-01T00:56:12;10.23;;;5.68;;
52033;SDS011;38045;52.988;6.536;2023-04-01T00:58:44;8.15;;;5.63;;
52033;SDS011;38045;52.988;6.536;2023-04-01T01:01:15;7.18;;;6.20;;
52033;SDS011;38045;52.988;6.536;2023-04-01T01:03:40;7.80;;;5.30;;
52033;SDS011;38045;52.988;6.536;2023-04-01T01:06:08;8.43;;;6.47;;
52033;SDS011;38045;52.988;6.536;2023-04-01T01:09:03;7.93;;;7.05;;
52033;SDS011;38045;52.988;6.536;2023-04-01T01:11:42;6.32;;;5.82;;
52033;SDS011;38045;52.988;6.536;2023-04-01T01:17:12;6.85;;;6.25;;
52033;SDS011;38045;52.988;6.536;2023-04-01T01:20:18;7.82;;;5.78;;
52033;SDS011;38045;52.988;6.536;2023-04-01T01:31:16;6.47;;;5.88;;
52033;SDS011;38045;52.988;6.536;2023-04-01T01:36:20;5.47;;;4.97;;
52033;SDS011;38045;52.988;6.536;2023-04-01T01:38:47;5.85;;;5.35;;
52033;SDS011;38045;52.988;6.536;2023-04-01T01:41:16;5.10;;;4.10;;
52033;SDS011;38045;52.988;6.536;2023-04-01T01:43:46;4.88;;;3.88;;
52033;SDS011;38045;52.988;6.536;2023-04-01T01:46:16;4.80;;;3.47;;
52033;SDS011;38045;52.988;6.536;2023-04-01T01:48:45;3.30;;;2.65;;
52033;SDS011;38045;52.988;6.536;2023-04-01T01:51:12;4.20;;;2.92;;
52033;SDS011;38045;52.988;6.536;2023-04-01T01:53:38;2.08;;;1.98;;
52033;SDS011;38045;52.988;6.536;2023-04-01T01:56:04;3.55;;;3.22;;
52033;SDS011;38045;52.988;6.536;2023-04-01T01:58:30;2.80;;;1.98;;
52033;SDS011;38045;52.988;6.536;2023-04-01T02:01:06;2.30;;;1.88;;
52033;SDS011;38045;52.988;6.536;2023-04-01T02:06:02;2.17;;;1.98;;
52033;SDS011;38045;52.988;6.536;2023-04-01T02:08:32;1.48;;;1.33;;
52033;SDS011;38045;52.988;6.536;2023-04-01T02:11:09;2.55;;;2.35;;
52033;SDS011;38045;52.988;6.536;2023-04-01T02:13:41;2.75;;;2.03;;
52033;SDS011;38045;52.988;6.536;2023-04-01T02:16:24;3.83;;;2.40;;
52033;SDS011;38045;52.988;6.536;2023-04-01T02:18:59;3.92;;;3.28;;
52033;SDS011;38045;52.988;6.536;2023-04-01T02:21:28;3.30;;;3.10;;
52033;SDS011;38045;52.988;6.536;2023-04-01T02:23:57;3.60;;;3.30;;
52033;SDS011;38045;52.988;6.536;2023-04-01T02:26:24;3.90;;;3.60;;
52033;SDS011;38045;52.988;6.536;2023-04-01T02:28:51;6.20;;;4.22;;
52033;SDS011;38045;52.988;6.536;2023-04-01T02:31:19;4.13;;;3.75;;
52033;SDS011;38045;52.988;6.536;2023-04-01T02:33:45;4.80;;;3.65;;
52033;SDS011;38045;52.988;6.536;2023-04-01T02:36:13;3.25;;;2.95;;
52033;SDS011;38045;52.988;6.536;2023-04-01T02:38:40;3.45;;;3.15;;
52033;SDS011;38045;52.988;6.536;2023-04-01T02:41:07;3.03;;;2.75;;
52033;SDS011;38045;52.988;6.536;2023-04-01T02:43:33;3.53;;;2.80;;
52033;SDS011;38045;52.988;6.536;2023-04-01T02:45:59;2.92;;;2.55;;
52033;SDS011;38045;52.988;6.536;2023-04-01T02:48:24;3.13;;;2.92;;
52033;SDS011;38045;52.988;6.536;2023-04-01T02:50:50;3.30;;;3.10;;
52033;SDS011;38045;52.988;6.536;2023-04-01T02:53:16;3.55;;;3.25;;
52033;SDS011;38045;52.988;6.536;2023-04-01T02:55:41;3.22;;;2.85;;
52033;SDS011;38045;52.988;6.536;2023-04-01T02:58:07;3.58;;;2.47;;
52033;SDS011;38045;52.988;6.536;2023-04-01T03:00:33;3.13;;;2.92;;
52033;SDS011;38045;52.988;6.536;2023-04-01T03:02:58;2.45;;;2.25;;
52033;SDS011;38045;52.988;6.536;2023-04-01T03:05:25;3.00;;;2.50;;
52033;SDS011;38045;52.988;6.536;2023-04-01T03:07:50;4.18;;;2.08;;
52033;SDS011;38045;52.988;6.536;2023-04-01T03:10:16;2.40;;;2.13;;
52033;SDS011;38045;52.988;6.536;2023-04-01T03:12:42;1.75;;;1.65;;
52033;SDS011;38045;52.988;6.536;2023-04-01T03:15:09;2.05;;;1.95;;
52033;SDS011;38045;52.988;6.536;2023-04-01T03:17:37;2.08;;;1.98;;
52033;SDS011;38045;52.988;6.536;2023-04-01T03:20:03;1.83;;;1.73;;
52033;SDS011;38045;52.988;6.536;2023-04-01T03:22:30;1.35;;;1.25;;
52033;SDS011;38045;52.988;6.536;2023-04-01T03:24:56;1.88;;;1.70;;
52033;SDS011;38045;52.988;6.536;2023-04-01T03:27:21;1.10;;;1.00;;
52033;SDS011;38045;52.988;6.536;2023-04-01T03:29:48;1.27;;;1.15;;
52033;SDS011;38045;52.988;6.536;2023-04-01T03:32:14;0.82;;;0.82;;
52033;SDS011;38045;52.988;6.536;2023-04-01T03:34:39;1.58;;;1.23;;
52033;SDS011;38045;52.988;6.536;2023-04-01T03:37:05;1.88;;;1.52;;
52033;SDS011;38045;52.988;6.536;2023-04-01T03:39:31;2.03;;;0.98;;
52033;SDS011;38045;52.988;6.536;2023-04-01T03:41:56;1.65;;;1.42;;
52033;SDS011;38045;52.988;6.536;2023-04-01T03:44:22;1.15;;;0.90;;
52033;SDS011;38045;52.988;6.536;2023-04-01T03:46:48;1.10;;;1.00;;
52033;SDS011;38045;52.988;6.536;2023-04-01T03:49:13;1.50;;;1.20;;
52033;SDS011;38045;52.988;6.536;2023-04-01T03:51:39;2.38;;;1.85;;
52033;SDS011;38045;52.988;6.536;2023-04-01T03:54:06;2.38;;;2.00;;
52033;SDS011;38045;52.988;6.536;2023-04-01T03:56:32;2.55;;;2.33;;
52033;SDS011;38045;52.988;6.536;2023-04-01T03:58:58;2.25;;;2.03;;
52033;SDS011;38045;52.988;6.536;2023-04-01T04:01:27;3.50;;;3.15;;
52033;SDS011;38045;52.988;6.536;2023-04-01T04:03:54;4.10;;;3.35;;
52033;SDS011;38045;52.988;6.536;2023-04-01T04:06:21;4.22;;;3.78;;
52033;SDS011;38045;52.988;6.536;2023-04-01T04:08:47;5.72;;;4.28;;
52033;SDS011;38045;52.988;6.536;2023-04-01T04:11:13;5.43;;;4.20;;
52033;SDS011;38045;52.988;6.536;2023-04-01T04:13:39;5.70;;;4.43;;
52033;SDS011;38045;52.988;6.536;2023-04-01T04:16:05;6.35;;;5.45;;
52033;SDS011;38045;52.988;6.536;2023-04-01T04:18:31;6.20;;;5.00;;
52033;SDS011;38045;52.988;6.536;2023-04-01T04:20:56;6.38;;;5.63;;
52033;SDS011;38045;52.988;6.536;2023-04-01T04:23:22;5.40;;;4.90;;
52033;SDS011;38045;52.988;6.536;2023-04-01T04:25:57;6.65;;;5.63;;
52033;SDS011;38045;52.988;6.536;2023-04-01T04:28:25;6.38;;;5.13;;
52033;SDS011;38045;52.988;6.536;2023-04-01T04:30:52;7.28;;;5.97;;
52033;SDS011;38045;52.988;6.536;2023-04-01T04:33:18;6.25;;;5.63;;
52033;SDS011;38045;52.988;6.536;2023-04-01T04:35:44;8.13;;;6.63;;
52033;SDS011;38045;52.988;6.536;2023-04-01T04:38:10;5.90;;;5.30;;
52033;SDS011;38045;52.988;6.536;2023-04-01T04:40:36;6.82;;;5.85;;
52033;SDS011;38045;52.988;6.536;2023-04-01T04:43:03;7.68;;;6.70;;
52033;SDS011;38045;52.988;6.536;2023-04-01T04:45:29;8.23;;;5.78;;
52033;SDS011;38045;52.988;6.536;2023-04-01T04:47:55;6.85;;;5.88;;
52033;SDS011;38045;52.988;6.536;2023-04-01T04:50:21;7.40;;;6.50;;
52033;SDS011;38045;52.988;6.536;2023-04-01T04:52:47;8.68;;;6.50;;
52033;SDS011;38045;52.988;6.536;2023-04-01T04:55:13;8.85;;;6.50;;
52033;SDS011;38045;52.988;6.536;2023-04-01T04:57:39;6.97;;;6.28;;
52033;SDS011;38045;52.988;6.536;2023-04-01T05:00:05;7.25;;;6.30;;
52033;SDS011;38045;52.988;6.536;2023-04-01T05:02:32;10.07;;;6.93;;
52033;SDS011;38045;52.988;6.536;2023-04-01T05:04:58;8.55;;;7.60;;
52033;SDS011;38045;52.988;6.536;2023-04-01T05:07:24;8.32;;;7.50;;
52033;SDS011;38045;52.988;6.536;2023-04-01T05:09:50;9.35;;;8.43;;
52033;SDS011;38045;52.988;6.536;2023-04-01T05:12:15;7.78;;;6.43;;
52033;SDS011;38045;52.988;6.536;2023-04-01T05:14:41;8.73;;;7.82;;
52033;SDS011;38045;52.988;6.536;2023-04-01T05:17:10;8.27;;;7.20;;
52033;SDS011;38045;52.988;6.536;2023-04-01T05:19:37;9.48;;;8.15;;
52033;SDS011;38045;52.988;6.536;2023-04-01T05:22:03;8.63;;;7.60;;
52033;SDS011;38045;52.988;6.536;2023-04-01T05:24:29;9.20;;;6.93;;
52033;SDS011;38045;52.988;6.536;2023-04-01T05:26:55;9.45;;;8.48;;
52033;SDS011;38045;52.988;6.536;2023-04-01T05:29:22;10.10;;;8.98;;
52033;SDS011;38045;52.988;6.536;2023-04-01T05:31:48;11.30;;;8.82;;
52033;SDS011;38045;52.988;6.536;2023-04-01T05:34:14;12.30;;;9.43;;
52033;SDS011;38045;52.988;6.536;2023-04-01T05:36:40;10.93;;;8.52;;
52033;SDS011;38045;52.988;6.536;2023-04-01T05:39:06;11.00;;;9.60;;
52033;SDS011;38045;52.988;6.536;2023-04-01T05:41:34;10.98;;;9.77;;
52033;SDS011;38045;52.988;6.536;2023-04-01T05:44:01;11.27;;;9.23;;
52033;SDS011;38045;52.988;6.536;2023-04-01T05:46:26;11.07;;;9.90;;
52033;SDS011;38045;52.988;6.536;2023-04-01T05:48:52;11.25;;;8.35;;
52033;SDS011;38045;52.988;6.536;2023-04-01T05:51:18;10.48;;;9.07;;
52033;SDS011;38045;52.988;6.536;2023-04-01T05:53:43;10.38;;;8.73;;
52033;SDS011;38045;52.988;6.536;2023-04-01T05:56:09;9.02;;;8.10;;
52033;SDS011;38045;52.988;6.536;2023-04-01T05:58:35;9.23;;;8.32;;
52033;SDS011;38045;52.988;6.536;2023-04-01T06:01:08;9.52;;;7.97;;
52033;SDS011;38045;52.988;6.536;2023-04-01T06:03:36;8.90;;;7.80;;
52033;SDS011;38045;52.988;6.536;2023-04-01T06:06:02;7.40;;;6.68;;
52033;SDS011;38045;52.988;6.536;2023-04-01T06:08:28;8.23;;;7.32;;
52033;SDS011;38045;52.988;6.536;2023-04-01T06:19:36;5.07;;;4.05;;
52033;SDS011;38045;52.988;6.536;2023-04-01T06:22:26;7.68;;;4.80;;
52033;SDS011;38045;52.988;6.536;2023-04-01T06:25:22;5.15;;;4.68;;
52033;SDS011;38045;52.988;6.536;2023-04-01T06:28:00;7.35;;;6.13;;
52033;SDS011;38045;52.988;6.536;2023-04-01T06:33:32;4.38;;;3.97;;
52033;SDS011;38045;52.988;6.536;2023-04-01T06:39:10;5.13;;;3.75;;
52033;SDS011;38045;52.988;6.536;2023-04-01T06:50:12;7.95;;;7.15;;
52033;SDS011;38045;52.988;6.536;2023-04-01T06:52:44;9.93;;;8.63;;
52033;SDS011;38045;52.988;6.536;2023-04-01T06:55:34;8.95;;;8.05;;
52033;SDS011;38045;52.988;6.536;2023-04-01T06:58:13;9.65;;;8.18;;
52033;SDS011;38045;52.988;6.536;2023-04-01T07:01:00;7.95;;;7.07;;
52033;SDS011;38045;52.988;6.536;2023-04-01T07:03:52;12.13;;;10.73;;
52033;SDS011;38045;52.988;6.536;2023-04-01T07:09:14;15.90;;;11.63;;
52033;SDS011;38045;52.988;6.536;2023-04-01T07:11:44;11.45;;;8.15;;
52033;SDS011;38045;52.988;6.536;2023-04-01T07:14:16;12.88;;;11.57;;
52033;SDS011;38045;52.988;6.536;2023-04-01T07:17:12;16.00;;;11.60;;
52033;SDS011;38045;52.988;6.536;2023-04-01T07:19:43;14.10;;;12.02;;
52033;SDS011;38045;52.988;6.536;2023-04-01T07:22:22;11.75;;;10.30;;
52033;SDS011;38045;52.988;6.536;2023-04-01T07:24:54;13.60;;;10.23;;
52033;SDS011;38045;52.988;6.536;2023-04-01T07:27:23;11.88;;;10.68;;
52033;SDS011;38045;52.988;6.536;2023-04-01T07:29:48;14.55;;;12.65;;
52033;SDS011;38045;52.988;6.536;2023-04-01T07:40:32;12.73;;;10.75;;
52033;SDS011;38045;52.988;6.536;2023-04-01T07:46:48;13.88;;;11.25;;
52033;SDS011;38045;52.988;6.536;2023-04-01T07:49:01;13.48;;;10.98;;
52033;SDS011;38045;52.988;6.536;2023-04-01T07:51:33;14.05;;;11.20;;
52033;SDS011;38045;52.988;6.536;2023-04-01T08:02:37;13.98;;;12.07;;
52033;SDS011;38045;52.988;6.536;2023-04-01T08:13:37;15.52;;;11.88;;
52033;SDS011;38045;52.988;6.536;2023-04-01T08:16:23;11.63;;;10.05;;
52033;SDS011;38045;52.988;6.536;2023-04-01T08:19:15;12.82;;;11.40;;
52033;SDS011;38045;52.988;6.536;2023-04-01T08:21:54;13.57;;;12.00;;
52033;SDS011;38045;52.988;6.536;2023-04-01T08:24:27;20.50;;;15.57;;
52033;SDS011;38045;52.988;6.536;2023-04-01T08:27:03;14.68;;;11.60;;
52033;SDS011;38045;52.988;6.536;2023-04-01T08:29:41;15.05;;;13.43;;
52033;SDS011;38045;52.988;6.536;2023-04-01T08:32:17;15.25;;;12.23;;
52033;SDS011;38045;52.988;6.536;2023-04-01T08:34:47;14.98;;;13.40;;
52033;SDS011;38045;52.988;6.536;2023-04-01T08:37:28;19.55;;;15.00;;
52033;SDS011;38045;52.988;6.536;2023-04-01T08:40:25;14.48;;;12.63;;
52033;SDS011;38045;52.988;6.536;2023-04-01T08:51:58;15.52;;;10.82;;
52033;SDS011;38045;52.988;6.536;2023-04-01T08:53:57;10.93;;;9.75;;
52033;SDS011;38045;52.988;6.536;2023-04-01T09:16:17;12.40;;;9.90;;
52033;SDS011;38045;52.988;6.536;2023-04-01T09:38:59;17.52;;;12.32;;
52033;SDS011;38045;52.988;6.536;2023-04-01T09:44:24;13.55;;;10.18;;
52033;SDS011;38045;52.988;6.536;2023-04-01T09:49:48;14.13;;;12.20;;
52033;SDS011;38045;52.988;6.536;2023-04-01T09:52:43;13.40;;;11.73;;
52033;SDS011;38045;52.988;6.536;2023-04-01T10:04:09;12.82;;;11.52;;
52033;SDS011;38045;52.988;6.536;2023-04-01T10:09:31;9.43;;;8.43;;
52033;SDS011;38045;52.988;6.536;2023-04-01T10:34:17;3.88;;;3.58;;
52033;SDS011;38045;52.988;6.536;2023-04-01T10:36:55;5.07;;;3.58;;
52033;SDS011;38045;52.988;6.536;2023-04-01T10:42:29;8.70;;;5.70;;
52033;SDS011;38045;52.988;6.536;2023-04-01T10:48:08;3.92;;;3.63;;
52033;SDS011;38045;52.988;6.536;2023-04-01T11:13:59;4.43;;;3.22;;
52033;SDS011;38045;52.988;6.536;2023-04-01T11:16:47;4.75;;;3.65;;
52033;SDS011;38045;52.988;6.536;2023-04-01T11:33:18;3.55;;;3.25;;
52033;SDS011;38045;52.988;6.536;2023-04-01T11:36:11;2.78;;;2.58;;
52033;SDS011;38045;52.988;6.536;2023-04-01T12:06:19;2.97;;;2.67;;
52033;SDS011;38045;52.988;6.536;2023-04-01T12:09:00;6.22;;;4.15;;
52033;SDS011;38045;52.988;6.536;2023-04-01T12:11:50;3.47;;;3.10;;
52033;SDS011;38045;52.988;6.536;2023-04-01T12:19:41;5.47;;;3.72;;
52033;SDS011;38045;52.988;6.536;2023-04-01T12:24:58;3.05;;;2.85;;
52033;SDS011;38045;52.988;6.536;2023-04-01T12:33:02;4.25;;;3.95;;
52033;SDS011;38045;52.988;6.536;2023-04-01T12:43:28;3.42;;;2.80;;
52033;SDS011;38045;52.988;6.536;2023-04-01T12:52:00;2.70;;;2.50;;
52033;SDS011;38045;52.988;6.536;2023-04-01T13:00:12;3.47;;;3.17;;
52033;SDS011;38045;52.988;6.536;2023-04-01T13:08:06;3.42;;;3.13;;
52033;SDS011;38045;52.988;6.536;2023-04-01T13:24:01;3.10;;;2.78;;
52033;SDS011;38045;52.988;6.536;2023-04-01T13:27:25;3.13;;;2.92;;
52033;SDS011;38045;52.988;6.536;2023-04-01T13:29:55;2.58;;;2.33;;
52033;SDS011;38045;52.988;6.536;2023-04-01T13:32:34;3.25;;;2.90;;
52033;SDS011;38045;52.988;6.536;2023-04-01T13:57:02;1.90;;;1.80;;
52033;SDS011;38045;52.988;6.536;2023-04-01T14:02:45;2.20;;;1.92;;
52033;SDS011;38045;52.988;6.536;2023-04-01T14:10:43;2.70;;;2.53;;
52033;SDS011;38045;52.988;6.536;2023-04-01T14:19:24;2.42;;;2.33;;
52033;SDS011;38045;52.988;6.536;2023-04-01T14:22:08;1.85;;;1.75;;
52033;SDS011;38045;52.988;6.536;2023-04-01T14:24:42;1.80;;;1.70;;
52033;SDS011;38045;52.988;6.536;2023-04-01T14:27:38;1.55;;;1.48;;
52033;SDS011;38045;52.988;6.536;2023-04-01T14:33:01;1.52;;;1.50;;
52033;SDS011;38045;52.988;6.536;2023-04-01T14:36:04;2.13;;;2.03;;
52033;SDS011;38045;52.988;6.536;2023-04-01T14:50:24;1.65;;;1.55;;
52033;SDS011;38045;52.988;6.536;2023-04-01T14:52:59;2.83;;;2.20;;
52033;SDS011;38045;52.988;6.536;2023-04-01T14:58:15;1.25;;;1.15;;
52033;SDS011;38045;52.988;6.536;2023-04-01T15:03:20;2.95;;;2.75;;
52033;SDS011;38045;52.988;6.536;2023-04-01T15:05:56;1.88;;;1.77;;
52033;SDS011;38045;52.988;6.536;2023-04-01T15:12:22;2.05;;;1.95;;
52033;SDS011;38045;52.988;6.536;2023-04-01T15:20:33;3.15;;;2.95;;
52033;SDS011;38045;52.988;6.536;2023-04-01T15:23:35;2.90;;;2.70;;
52033;SDS011;38045;52.988;6.536;2023-04-01T15:40:22;2.38;;;2.25;;
52033;SDS011;38045;52.988;6.536;2023-04-01T15:49:04;2.90;;;2.60;;
52033;SDS011;38045;52.988;6.536;2023-04-01T16:08:55;5.97;;;4.25;;
52033;SDS011;38045;52.988;6.536;2023-04-01T16:14:29;4.40;;;4.10;;
52033;SDS011;38045;52.988;6.536;2023-04-01T16:22:37;4.45;;;4.05;;
52033;SDS011;38045;52.988;6.536;2023-04-01T16:25:14;7.00;;;5.20;;
52033;SDS011;38045;52.988;6.536;2023-04-01T16:28:10;5.38;;;4.65;;
52033;SDS011;38045;52.988;6.536;2023-04-01T16:30:44;7.25;;;4.65;;
52033;SDS011;38045;52.988;6.536;2023-04-01T16:35:59;5.30;;;4.55;;
52033;SDS011;38045;52.988;6.536;2023-04-01T16:41:14;5.28;;;4.78;;
52033;SDS011;38045;52.988;6.536;2023-04-01T16:43:45;10.25;;;5.57;;
52033;SDS011;38045;52.988;6.536;2023-04-01T16:49:00;6.25;;;4.95;;
52033;SDS011;38045;52.988;6.536;2023-04-01T17:00:23;6.72;;;5.28;;
52033;SDS011;38045;52.988;6.536;2023-04-01T17:02:42;6.40;;;4.65;;
52033;SDS011;38045;52.988;6.536;2023-04-01T17:05:12;5.15;;;4.03;;
52033;SDS011;38045;52.988;6.536;2023-04-01T17:07:40;6.82;;;3.83;;
52033;SDS011;38045;52.988;6.536;2023-04-01T17:18:59;6.65;;;5.95;;
52033;SDS011;38045;52.988;6.536;2023-04-01T17:24:28;8.95;;;4.50;;
52033;SDS011;38045;52.988;6.536;2023-04-01T17:27:12;6.32;;;5.65;;
52033;SDS011;38045;52.988;6.536;2023-04-01T17:30:03;6.57;;;5.13;;
52033;SDS011;38045;52.988;6.536;2023-04-01T17:44:21;12.40;;;7.50;;
52033;SDS011;38045;52.988;6.536;2023-04-01T17:49:47;7.35;;;6.10;;
52033;SDS011;38045;52.988;6.536;2023-04-01T17:53:03;7.70;;;6.95;;
52033;SDS011;38045;52.988;6.536;2023-04-01T18:10:19;7.38;;;6.68;;
52033;SDS011;38045;52.988;6.536;2023-04-01T18:12:40;9.27;;;5.65;;
52033;SDS011;38045;52.988;6.536;2023-04-01T18:20:52;10.00;;;6.50;;
52033;SDS011;38045;52.988;6.536;2023-04-01T18:23:28;6.82;;;6.20;;
52033;SDS011;38045;52.988;6.536;2023-04-01T18:26:02;7.90;;;7.07;;
52033;SDS011;38045;52.988;6.536;2023-04-01T18:42:03;7.18;;;6.47;;
52033;SDS011;38045;52.988;6.536;2023-04-01T18:44:52;11.70;;;7.20;;
52033;SDS011;38045;52.988;6.536;2023-04-01T18:47:43;10.43;;;6.88;;
52033;SDS011;38045;52.988;6.536;2023-04-01T18:53:08;8.07;;;5.13;;
52033;SDS011;38045;52.988;6.536;2023-04-01T18:55:49;8.73;;;6.93;;
52033;SDS011;38045;52.988;6.536;2023-04-01T19:08:59;6.95;;;5.78;;
52033;SDS011;38045;52.988;6.536;2023-04-01T19:14:38;10.27;;;6.55;;
52033;SDS011;38045;52.988;6.536;2023-04-01T19:25:55;11.07;;;6.90;;
52033;SDS011;38045;52.988;6.536;2023-04-01T19:31:14;8.23;;;5.50;;
52033;SDS011;38045;52.988;6.536;2023-04-01T19:34:07;12.73;;;7.15;;
52033;SDS011;38045;52.988;6.536;2023-04-01T19:36:54;12.93;;;6.22;;
52033;SDS011;38045;52.988;6.536;2023-04-01T19:44:57;10.57;;;6.47;;
52033;SDS011;38045;52.988;6.536;2023-04-01T19:56:00;17.48;;;7.90;;
52033;SDS011;38045;52.988;6.536;2023-04-01T19:58:45;8.63;;;7.38;;
52033;SDS011;38045;52.988;6.536;2023-04-01T20:01:41;9.80;;;6.70;;
52033;SDS011;38045;52.988;6.536;2023-04-01T20:04:26;10.07;;;7.07;;
52033;SDS011;38045;52.988;6.536;2023-04-01T20:12:19;15.20;;;8.97;;
52033;SDS011;38045;52.988;6.536;2023-04-01T20:15:20;11.77;;;7.72;;
52033;SDS011;38045;52.988;6.536;2023-04-01T20:17:57;13.90;;;8.77;;
52033;SDS011;38045;52.988;6.536;2023-04-01T20:20:27;14.38;;;8.10;;
52033;SDS011;38045;52.988;6.536;2023-04-01T20:46:48;11.63;;;8.38;;
52033;SDS011;38045;52.988;6.536;2023-04-01T20:49:41;11.27;;;8.43;;
52033;SDS011;38045;52.988;6.536;2023-04-01T20:55:19;8.20;;;6.50;;
52033;SDS011;38045;52.988;6.536;2023-04-01T21:01:01;8.48;;;7.20;;
52033;SDS011;38045;52.988;6.536;2023-04-01T21:03:43;7.38;;;4.28;;
52033;SDS011;38045;52.988;6.536;2023-04-01T21:09:37;7.88;;;6.30;;
52033;SDS011;38045;52.988;6.536;2023-04-01T21:15:03;11.77;;;5.53;;
52033;SDS011;38045;52.988;6.536;2023-04-01T21:34:59;6.95;;;6.25;;
52033;SDS011;38045;52.988;6.536;2023-04-01T21:43:00;6.82;;;5.05;;
52033;SDS011;38045;52.988;6.536;2023-04-01T22:00:00;9.68;;;6.32;;
52033;SDS011;38045;52.988;6.536;2023-04-01T22:05:31;9.52;;;6.28;;
52033;SDS011;38045;52.988;6.536;2023-04-01T22:10:55;10.05;;;5.80;;
52033;SDS011;38045;52.988;6.536;2023-04-01T22:13:36;5.75;;;4.93;;
52033;SDS011;38045;52.988;6.536;2023-04-01T22:16:15;6.72;;;5.10;;
52033;SDS011;38045;52.988;6.536;2023-04-01T22:18:52;14.35;;;6.82;;
52033;SDS011;38045;52.988;6.536;2023-04-01T22:24:23;7.20;;;5.85;;
52033;SDS011;38045;52.988;6.536;2023-04-01T22:27:03;10.50;;;6.38;;
52033;SDS011;38045;52.988;6.536;2023-04-01T22:32:26;8.20;;;5.47;;
52033;SDS011;38045;52.988;6.536;2023-04-01T22:37:35;13.30;;;5.03;;
52033;SDS011;38045;52.988;6.536;2023-04-01T22:40:19;8.57;;;5.63;;
52033;SDS011;38045;52.988;6.536;2023-04-01T22:42:47;8.05;;;5.90;;
52033;SDS011;38045;52.988;6.536;2023-04-01T22:51:18;6.43;;;4.65;;
52033;SDS011;38045;52.988;6.536;2023-04-01T22:53:53;8.35;;;4.65;;
52033;SDS011;38045;52.988;6.536;2023-04-01T22:56:23;12.85;;;6.43;;
52033;SDS011;38045;52.988;6.536;2023-04-01T23:01:44;7.68;;;5.22;;
52033;SDS011;38045;52.988;6.536;2023-04-01T23:04:24;14.88;;;5.70;;
52033;SDS011;38045;52.988;6.536;2023-04-01T23:06:57;8.05;;;5.30;;
52033;SDS011;38045;52.988;6.536;2023-04-01T23:09:27;8.63;;;6.20;;
52033;SDS011;38045;52.988;6.536;2023-04-01T23:12:00;5.27;;;4.37;;
52033;SDS011;38045;52.988;6.536;2023-04-01T23:14:37;10.30;;;5.68;;
52033;SDS011;38045;52.988;6.536;2023-04-01T23:17:16;6.68;;;5.28;;
52033;SDS011;38045;52.988;6.536;2023-04-01T23:20:02;10.00;;;4.50;;
52033;SDS011;38045;52.988;6.536;2023-04-01T23:22:43;12.80;;;6.22;;
52033;SDS011;38045;52.988;6.536;2023-04-01T23:27:48;7.47;;;4.75;;
52033;SDS011;38045;52.988;6.536;2023-04-01T23:38:17;9.82;;;4.40;;
52033;SDS011;38045;52.988;6.536;2023-04-01T23:40:43;3.28;;;2.67;;
52033;SDS011;38045;52.988;6.536;2023-04-01T23:43:13;17.95;;;5.07;;
52033;SDS011;38045;52.988;6.536;2023-04-01T23:46:08;9.40;;;4.50;;
52033;SDS011;38045;52.988;6.536;2023-04-01T23:48:35;5.97;;;5.28;;
52033;SDS011;38045;52.988;6.536;2023-04-01T23:51:05;9.13;;;4.53;;
52033;SDS011;38045;52.988;6.536;2023-04-01T23:53:43;8.93;;;7.20;;
52033;SDS011;38045;52.988;6.536;2023-04-01T23:56:11;7.90;;;4.72;;
52033;SDS011;38045;52.988;6.536;2023-04-01T23:58:44;5.72;;;5.22;;
